sensor_id;sensor_type;location;lat;lon;timestamp;pressure;altitude;pressure_sealevel;temperature
64184;BMP280;50485;49.768;8.636;2022-08-07T00:00:34;100975.16;;;20.73
64184;BMP280;50485;49.768;8.636;2022-08-07T00:03:00;100975.31;;;20.80
64184;BMP280;50485;49.768;8.636;2022-08-07T00:05:25;100961.63;;;20.77
64184;BMP280;50485;49.768;8.636;2022-08-07T00:07:51;100969.19;;;20.67
64184;BMP280;50485;49.768;8.636;2022-08-07T00:10:16;100959.44;;;20.66
64184;BMP280;50485;49.768;8.636;2022-08-07T00:12:41;100959.38;;;20.63
64184;BMP280;50485;49.768;8.636;2022-08-07T00:15:08;100960.47;;;20.62
64184;BMP280;50485;49.768;8.636;2022-08-07T00:17:33;100953.31;;;20.54
64184;BMP280;50485;49.768;8.636;2022-08-07T00:19:59;100950.97;;;20.52
64184;BMP280;50485;49.768;8.636;2022-08-07T00:22:24;100950.97;;;20.52
64184;BMP280;50485;49.768;8.636;2022-08-07T00:24:49;100954.50;;;20.53
64184;BMP280;50485;49.768;8.636;2022-08-07T00:27:14;100951.84;;;20.56
64184;BMP280;50485;49.768;8.636;2022-08-07T00:29:39;100952.16;;;20.55
64184;BMP280;50485;49.768;8.636;2022-08-07T00:32:05;100939.63;;;20.50
64184;BMP280;50485;49.768;8.636;2022-08-07T00:34:30;100943.50;;;20.49
64184;BMP280;50485;49.768;8.636;2022-08-07T00:36:55;100946.59;;;20.48
64184;BMP280;50485;49.768;8.636;2022-08-07T00:39:21;100948.88;;;20.46
64184;BMP280;50485;49.768;8.636;2022-08-07T00:41:46;100953.44;;;20.42
64184;BMP280;50485;49.768;8.636;2022-08-07T00:44:12;100939.03;;;20.41
64184;BMP280;50485;49.768;8.636;2022-08-07T00:46:37;100949.66;;;20.46
64184;BMP280;50485;49.768;8.636;2022-08-07T00:49:02;100944.34;;;20.53
64184;BMP280;50485;49.768;8.636;2022-08-07T00:51:28;100949.13;;;20.41
64184;BMP280;50485;49.768;8.636;2022-08-07T00:53:53;100943.59;;;20.37
64184;BMP280;50485;49.768;8.636;2022-08-07T00:56:18;100939.09;;;20.25
64184;BMP280;50485;49.768;8.636;2022-08-07T00:58:44;100936.16;;;20.34
64184;BMP280;50485;49.768;8.636;2022-08-07T01:01:09;100946.34;;;20.37
64184;BMP280;50485;49.768;8.636;2022-08-07T01:03:35;100943.94;;;20.32
64184;BMP280;50485;49.768;8.636;2022-08-07T01:06:00;100938.81;;;20.30
64184;BMP280;50485;49.768;8.636;2022-08-07T01:08:27;100938.38;;;20.28
64184;BMP280;50485;49.768;8.636;2022-08-07T01:10:52;100939.94;;;20.29
64184;BMP280;50485;49.768;8.636;2022-08-07T01:13:17;100929.59;;;20.35
64184;BMP280;50485;49.768;8.636;2022-08-07T01:15:43;100936.22;;;20.38
64184;BMP280;50485;49.768;8.636;2022-08-07T01:18:09;100931.50;;;20.34
64184;BMP280;50485;49.768;8.636;2022-08-07T01:20:36;100931.72;;;20.26
64184;BMP280;50485;49.768;8.636;2022-08-07T01:23:02;100936.38;;;20.25
64184;BMP280;50485;49.768;8.636;2022-08-07T01:25:28;100941.72;;;20.22
64184;BMP280;50485;49.768;8.636;2022-08-07T01:27:54;100927.19;;;20.33
64184;BMP280;50485;49.768;8.636;2022-08-07T01:30:19;100931.34;;;20.27
64184;BMP280;50485;49.768;8.636;2022-08-07T01:32:44;100931.97;;;20.21
64184;BMP280;50485;49.768;8.636;2022-08-07T01:35:09;100935.75;;;20.16
64184;BMP280;50485;49.768;8.636;2022-08-07T01:37:35;100935.75;;;20.32
64184;BMP280;50485;49.768;8.636;2022-08-07T01:40:00;100930.38;;;20.35
64184;BMP280;50485;49.768;8.636;2022-08-07T01:42:28;100938.38;;;20.28
64184;BMP280;50485;49.768;8.636;2022-08-07T01:44:53;100941.59;;;20.34
64184;BMP280;50485;49.768;8.636;2022-08-07T01:47:19;100940.81;;;20.33
64184;BMP280;50485;49.768;8.636;2022-08-07T01:49:44;100939.22;;;20.32
64184;BMP280;50485;49.768;8.636;2022-08-07T01:52:09;100937.59;;;20.28
64184;BMP280;50485;49.768;8.636;2022-08-07T01:54:37;100938.31;;;20.25
64184;BMP280;50485;49.768;8.636;2022-08-07T01:57:04;100926.88;;;20.19
64184;BMP280;50485;49.768;8.636;2022-08-07T01:59:39;100925.63;;;20.32
64184;BMP280;50485;49.768;8.636;2022-08-07T02:02:06;100934.97;;;20.16
64184;BMP280;50485;49.768;8.636;2022-08-07T02:07:16;100929.44;;;20.12
64184;BMP280;50485;49.768;8.636;2022-08-07T02:09:44;100932.63;;;20.14
64184;BMP280;50485;49.768;8.636;2022-08-07T02:12:10;100925.25;;;20.15
64184;BMP280;50485;49.768;8.636;2022-08-07T02:14:44;100925.59;;;20.13
64184;BMP280;50485;49.768;8.636;2022-08-07T02:17:11;100915.22;;;20.03
64184;BMP280;50485;49.768;8.636;2022-08-07T02:19:37;100925.78;;;20.04
64184;BMP280;50485;49.768;8.636;2022-08-07T02:22:03;100918.94;;;20.11
64184;BMP280;50485;49.768;8.636;2022-08-07T02:24:28;100920.75;;;20.06
64184;BMP280;50485;49.768;8.636;2022-08-07T02:26:54;100916.13;;;20.07
64184;BMP280;50485;49.768;8.636;2022-08-07T02:29:19;100923.78;;;20.01
64184;BMP280;50485;49.768;8.636;2022-08-07T02:31:45;100917.63;;;19.89
64184;BMP280;50485;49.768;8.636;2022-08-07T02:34:11;100917.88;;;19.99
64184;BMP280;50485;49.768;8.636;2022-08-07T02:36:36;100911.19;;;20.13
64184;BMP280;50485;49.768;8.636;2022-08-07T02:39:03;100915.13;;;20.15
64184;BMP280;50485;49.768;8.636;2022-08-07T02:41:28;100915.84;;;20.12
64184;BMP280;50485;49.768;8.636;2022-08-07T02:43:54;100912.97;;;20.05
64184;BMP280;50485;49.768;8.636;2022-08-07T02:46:22;100918.41;;;20.05
64184;BMP280;50485;49.768;8.636;2022-08-07T02:48:48;100916.56;;;20.09
64184;BMP280;50485;49.768;8.636;2022-08-07T02:51:14;100913.03;;;20.09
64184;BMP280;50485;49.768;8.636;2022-08-07T02:53:41;100916.22;;;20.11
64184;BMP280;50485;49.768;8.636;2022-08-07T02:56:10;100910.84;;;20.14
64184;BMP280;50485;49.768;8.636;2022-08-07T02:58:36;100918.19;;;20.14
64184;BMP280;50485;49.768;8.636;2022-08-07T03:01:03;100916.81;;;20.04
64184;BMP280;50485;49.768;8.636;2022-08-07T03:03:29;100915.91;;;20.16
64184;BMP280;50485;49.768;8.636;2022-08-07T03:05:55;100910.94;;;20.18
64184;BMP280;50485;49.768;8.636;2022-08-07T03:08:21;100908.63;;;20.20
64184;BMP280;50485;49.768;8.636;2022-08-07T03:10:46;100918.19;;;20.29
64184;BMP280;50485;49.768;8.636;2022-08-07T03:13:15;100905.44;;;20.33
64184;BMP280;50485;49.768;8.636;2022-08-07T03:15:40;100910.94;;;20.37
64184;BMP280;50485;49.768;8.636;2022-08-07T03:18:06;100909.00;;;20.38
64184;BMP280;50485;49.768;8.636;2022-08-07T03:20:32;100920.81;;;20.45
64184;BMP280;50485;49.768;8.636;2022-08-07T03:22:57;100906.75;;;20.40
64184;BMP280;50485;49.768;8.636;2022-08-07T03:25:23;100915.38;;;20.45
64184;BMP280;50485;49.768;8.636;2022-08-07T03:27:49;100909.31;;;20.52
64184;BMP280;50485;49.768;8.636;2022-08-07T03:30:14;100916.78;;;20.55
64184;BMP280;50485;49.768;8.636;2022-08-07T03:32:40;100908.69;;;20.58
64184;BMP280;50485;49.768;8.636;2022-08-07T03:35:08;100914.19;;;20.62
64184;BMP280;50485;49.768;8.636;2022-08-07T03:37:35;100901.44;;;20.47
64184;BMP280;50485;49.768;8.636;2022-08-07T03:40:01;100906.25;;;20.53
64184;BMP280;50485;49.768;8.636;2022-08-07T03:42:27;100908.75;;;20.62
64184;BMP280;50485;49.768;8.636;2022-08-07T03:44:52;100906.59;;;20.71
64184;BMP280;50485;49.768;8.636;2022-08-07T03:47:18;100902.66;;;20.69
64184;BMP280;50485;49.768;8.636;2022-08-07T03:49:44;100906.19;;;20.69
64184;BMP280;50485;49.768;8.636;2022-08-07T03:52:10;100906.25;;;20.73
64184;BMP280;50485;49.768;8.636;2022-08-07T03:54:35;100907.47;;;20.75
64184;BMP280;50485;49.768;8.636;2022-08-07T03:57:01;100906.78;;;20.78
64184;BMP280;50485;49.768;8.636;2022-08-07T03:59:26;100915.44;;;20.84
64184;BMP280;50485;49.768;8.636;2022-08-07T04:01:52;100920.06;;;20.83
64184;BMP280;50485;49.768;8.636;2022-08-07T04:04:18;100923.69;;;20.87
64184;BMP280;50485;49.768;8.636;2022-08-07T04:06:43;100923.69;;;20.87
64184;BMP280;50485;49.768;8.636;2022-08-07T04:09:09;100929.53;;;20.89
64184;BMP280;50485;49.768;8.636;2022-08-07T04:11:35;100926.09;;;20.92
64184;BMP280;50485;49.768;8.636;2022-08-07T04:14:01;100923.44;;;20.96
64184;BMP280;50485;49.768;8.636;2022-08-07T04:16:27;100927.41;;;20.99
64184;BMP280;50485;49.768;8.636;2022-08-07T04:18:52;100926.22;;;21.00
64184;BMP280;50485;49.768;8.636;2022-08-07T04:21:17;100926.22;;;21.00
64184;BMP280;50485;49.768;8.636;2022-08-07T04:23:43;100924.34;;;21.04
64184;BMP280;50485;49.768;8.636;2022-08-07T04:26:08;100925.16;;;21.04
64184;BMP280;50485;49.768;8.636;2022-08-07T04:28:33;100928.38;;;21.10
64184;BMP280;50485;49.768;8.636;2022-08-07T04:30:58;100928.06;;;21.11
64184;BMP280;50485;49.768;8.636;2022-08-07T04:33:24;100936.94;;;21.08
64184;BMP280;50485;49.768;8.636;2022-08-07T04:35:49;100939.84;;;21.00
64184;BMP280;50485;49.768;8.636;2022-08-07T04:38:15;100930.84;;;20.95
64184;BMP280;50485;49.768;8.636;2022-08-07T04:40:41;100935.84;;;20.93
64184;BMP280;50485;49.768;8.636;2022-08-07T04:43:07;100943.81;;;20.83
64184;BMP280;50485;49.768;8.636;2022-08-07T04:45:44;100943.81;;;20.83
64184;BMP280;50485;49.768;8.636;2022-08-07T04:48:13;100952.06;;;20.86
64184;BMP280;50485;49.768;8.636;2022-08-07T04:50:43;100952.69;;;20.80
64184;BMP280;50485;49.768;8.636;2022-08-07T04:53:20;100948.13;;;20.84
64184;BMP280;50485;49.768;8.636;2022-08-07T04:55:53;100953.38;;;20.73
64184;BMP280;50485;49.768;8.636;2022-08-07T04:58:39;100965.91;;;20.78
64184;BMP280;50485;49.768;8.636;2022-08-07T05:01:16;100968.31;;;21.21
64184;BMP280;50485;49.768;8.636;2022-08-07T05:04:19;100970.09;;;21.33
64184;BMP280;50485;49.768;8.636;2022-08-07T05:09:31;100968.50;;;21.51
64184;BMP280;50485;49.768;8.636;2022-08-07T05:11:56;100970.00;;;21.72
64184;BMP280;50485;49.768;8.636;2022-08-07T05:16:56;100964.50;;;21.91
64184;BMP280;50485;49.768;8.636;2022-08-07T05:19:23;100972.88;;;22.05
64184;BMP280;50485;49.768;8.636;2022-08-07T05:21:51;100979.59;;;22.11
64184;BMP280;50485;49.768;8.636;2022-08-07T05:24:17;100972.38;;;22.23
64184;BMP280;50485;49.768;8.636;2022-08-07T05:26:43;100977.19;;;22.33
64184;BMP280;50485;49.768;8.636;2022-08-07T05:29:10;100971.13;;;22.46
64184;BMP280;50485;49.768;8.636;2022-08-07T05:31:38;100977.56;;;22.61
64184;BMP280;50485;49.768;8.636;2022-08-07T05:34:05;100973.03;;;22.72
64184;BMP280;50485;49.768;8.636;2022-08-07T05:36:30;100982.16;;;22.87
64184;BMP280;50485;49.768;8.636;2022-08-07T05:38:57;100982.34;;;23.05
64184;BMP280;50485;49.768;8.636;2022-08-07T05:41:22;100994.59;;;23.14
64184;BMP280;50485;49.768;8.636;2022-08-07T05:43:49;100981.44;;;23.27
64184;BMP280;50485;49.768;8.636;2022-08-07T05:46:18;100992.09;;;23.39
64184;BMP280;50485;49.768;8.636;2022-08-07T05:48:43;100994.97;;;23.54
64184;BMP280;50485;49.768;8.636;2022-08-07T05:51:09;100999.78;;;23.67
64184;BMP280;50485;49.768;8.636;2022-08-07T05:53:35;100988.91;;;23.74
64184;BMP280;50485;49.768;8.636;2022-08-07T05:56:00;100990.56;;;23.86
64184;BMP280;50485;49.768;8.636;2022-08-07T05:58:26;100988.25;;;23.95
64184;BMP280;50485;49.768;8.636;2022-08-07T06:00:52;100995.41;;;24.07
64184;BMP280;50485;49.768;8.636;2022-08-07T06:03:18;100996.25;;;24.18
64184;BMP280;50485;49.768;8.636;2022-08-07T06:05:45;101004.88;;;24.20
64184;BMP280;50485;49.768;8.636;2022-08-07T06:08:10;101006.09;;;24.33
64184;BMP280;50485;49.768;8.636;2022-08-07T06:10:35;101004.97;;;24.38
64184;BMP280;50485;49.768;8.636;2022-08-07T06:13:01;101007.38;;;24.47
64184;BMP280;50485;49.768;8.636;2022-08-07T06:15:26;101007.78;;;24.52
64184;BMP280;50485;49.768;8.636;2022-08-07T06:17:53;101016.84;;;24.63
64184;BMP280;50485;49.768;8.636;2022-08-07T06:20:18;100998.09;;;24.76
64184;BMP280;50485;49.768;8.636;2022-08-07T06:22:44;101010.25;;;24.82
64184;BMP280;50485;49.768;8.636;2022-08-07T06:25:10;101014.97;;;24.89
64184;BMP280;50485;49.768;8.636;2022-08-07T06:27:37;101012.25;;;24.92
64184;BMP280;50485;49.768;8.636;2022-08-07T06:30:02;101015.38;;;24.91
64184;BMP280;50485;49.768;8.636;2022-08-07T06:32:28;101015.41;;;25.05
64184;BMP280;50485;49.768;8.636;2022-08-07T06:34:53;101016.97;;;25.06
64184;BMP280;50485;49.768;8.636;2022-08-07T06:37:18;101007.19;;;25.12
64184;BMP280;50485;49.768;8.636;2022-08-07T06:39:43;101009.56;;;25.24
64184;BMP280;50485;49.768;8.636;2022-08-07T06:42:19;101006.41;;;25.15
64184;BMP280;50485;49.768;8.636;2022-08-07T06:44:48;101010.75;;;25.23
64184;BMP280;50485;49.768;8.636;2022-08-07T06:47:13;101004.50;;;25.33
64184;BMP280;50485;49.768;8.636;2022-08-07T06:49:39;101003.69;;;25.36
64184;BMP280;50485;49.768;8.636;2022-08-07T06:52:04;100996.66;;;25.57
64184;BMP280;50485;49.768;8.636;2022-08-07T06:54:31;100996.66;;;25.43
64184;BMP280;50485;49.768;8.636;2022-08-07T06:56:57;100995.09;;;25.45
64184;BMP280;50485;49.768;8.636;2022-08-07T06:59:23;100993.13;;;25.56
64184;BMP280;50485;49.768;8.636;2022-08-07T07:01:50;100989.59;;;25.63
64184;BMP280;50485;49.768;8.636;2022-08-07T07:04:16;100996.25;;;25.69
64184;BMP280;50485;49.768;8.636;2022-08-07T07:06:41;100992.31;;;25.84
64184;BMP280;50485;49.768;8.636;2022-08-07T07:17:23;101007.53;;;26.14
64184;BMP280;50485;49.768;8.636;2022-08-07T07:19:52;100996.31;;;26.74
64184;BMP280;50485;49.768;8.636;2022-08-07T07:22:18;100991.16;;;26.80
64184;BMP280;50485;49.768;8.636;2022-08-07T07:24:43;101000.78;;;26.47
64184;BMP280;50485;49.768;8.636;2022-08-07T07:27:10;101000.06;;;26.28
64184;BMP280;50485;49.768;8.636;2022-08-07T07:29:37;100992.66;;;26.15
64184;BMP280;50485;49.768;8.636;2022-08-07T07:32:05;100996.09;;;26.36
64184;BMP280;50485;49.768;8.636;2022-08-07T07:34:31;100998.09;;;26.29
64184;BMP280;50485;49.768;8.636;2022-08-07T07:36:58;100991.78;;;26.39
64184;BMP280;50485;49.768;8.636;2022-08-07T07:39:24;100987.72;;;26.61
64184;BMP280;50485;49.768;8.636;2022-08-07T07:41:50;100997.78;;;26.89
64184;BMP280;50485;49.768;8.636;2022-08-07T07:44:15;100986.59;;;26.52
64184;BMP280;50485;49.768;8.636;2022-08-07T07:46:42;100978.16;;;26.87
64184;BMP280;50485;49.768;8.636;2022-08-07T07:49:08;100976.78;;;27.13
64184;BMP280;50485;49.768;8.636;2022-08-07T07:51:33;100982.41;;;27.02
64184;BMP280;50485;49.768;8.636;2022-08-07T07:53:59;100973.75;;;27.45
64184;BMP280;50485;49.768;8.636;2022-08-07T07:56:25;100974.75;;;27.24
64184;BMP280;50485;49.768;8.636;2022-08-07T07:58:52;100978.06;;;27.53
64184;BMP280;50485;49.768;8.636;2022-08-07T08:01:17;100970.09;;;27.59
64184;BMP280;50485;49.768;8.636;2022-08-07T08:03:44;100970.41;;;27.68
64184;BMP280;50485;49.768;8.636;2022-08-07T08:06:09;100971.06;;;27.79
64184;BMP280;50485;49.768;8.636;2022-08-07T08:08:36;100967.31;;;27.62
64184;BMP280;50485;49.768;8.636;2022-08-07T08:11:02;100971.78;;;27.87
64184;BMP280;50485;49.768;8.636;2022-08-07T08:13:28;100969.47;;;27.85
64184;BMP280;50485;49.768;8.636;2022-08-07T08:15:53;100967.41;;;27.52
64184;BMP280;50485;49.768;8.636;2022-08-07T08:18:19;100967.94;;;27.81
64184;BMP280;50485;49.768;8.636;2022-08-07T08:20:45;100978.56;;;28.16
64184;BMP280;50485;49.768;8.636;2022-08-07T08:23:11;100966.00;;;27.78
64184;BMP280;50485;49.768;8.636;2022-08-07T08:25:56;100960.94;;;28.37
64184;BMP280;50485;49.768;8.636;2022-08-07T08:28:42;100964.09;;;28.62
64184;BMP280;50485;49.768;8.636;2022-08-07T08:31:08;100964.97;;;28.29
64184;BMP280;50485;49.768;8.636;2022-08-07T08:33:34;100955.06;;;28.01
64184;BMP280;50485;49.768;8.636;2022-08-07T08:36:00;100957.91;;;28.28
64184;BMP280;50485;49.768;8.636;2022-08-07T08:38:34;100962.00;;;28.16
64184;BMP280;50485;49.768;8.636;2022-08-07T08:43:36;100955.06;;;28.89
64184;BMP280;50485;49.768;8.636;2022-08-07T08:56:29;100954.56;;;29.40
64184;BMP280;50485;49.768;8.636;2022-08-07T09:01:43;100954.03;;;29.69
64184;BMP280;50485;49.768;8.636;2022-08-07T09:04:34;100953.56;;;29.90
64184;BMP280;50485;49.768;8.636;2022-08-07T09:07:09;100947.16;;;29.57
64184;BMP280;50485;49.768;8.636;2022-08-07T09:12:07;100955.84;;;29.95
64184;BMP280;50485;49.768;8.636;2022-08-07T09:14:39;100950.97;;;30.55
64184;BMP280;50485;49.768;8.636;2022-08-07T09:19:56;100958.00;;;30.40
64184;BMP280;50485;49.768;8.636;2022-08-07T09:25:20;100952.81;;;31.07
64184;BMP280;50485;49.768;8.636;2022-08-07T09:27:51;100952.78;;;31.23
64184;BMP280;50485;49.768;8.636;2022-08-07T09:30:19;100948.88;;;30.92
64184;BMP280;50485;49.768;8.636;2022-08-07T09:37:54;100939.03;;;31.19
64184;BMP280;50485;49.768;8.636;2022-08-07T09:43:22;100939.13;;;31.86
64184;BMP280;50485;49.768;8.636;2022-08-07T09:45:56;100939.91;;;32.12
64184;BMP280;50485;49.768;8.636;2022-08-07T09:53:36;100943.94;;;33.06
64184;BMP280;50485;49.768;8.636;2022-08-07T10:01:24;100920.94;;;33.27
64184;BMP280;50485;49.768;8.636;2022-08-07T10:09:28;100881.66;;;29.74
64184;BMP280;50485;49.768;8.636;2022-08-07T10:12:04;100881.97;;;29.60
64184;BMP280;50485;49.768;8.636;2022-08-07T10:14:39;100886.34;;;29.77
64184;BMP280;50485;49.768;8.636;2022-08-07T10:17:08;100883.53;;;29.41
64184;BMP280;50485;49.768;8.636;2022-08-07T10:19:45;100873.69;;;29.40
64184;BMP280;50485;49.768;8.636;2022-08-07T10:37:25;100866.03;;;29.67
64184;BMP280;50485;49.768;8.636;2022-08-07T10:40:02;100860.94;;;29.26
64184;BMP280;50485;49.768;8.636;2022-08-07T10:42:34;100853.66;;;28.93
64184;BMP280;50485;49.768;8.636;2022-08-07T10:45:02;100844.91;;;28.51
64184;BMP280;50485;49.768;8.636;2022-08-07T10:50:02;100851.41;;;28.88
64184;BMP280;50485;49.768;8.636;2022-08-07T10:55:22;100851.91;;;28.83
64184;BMP280;50485;49.768;8.636;2022-08-07T10:58:02;100850.75;;;28.57
64184;BMP280;50485;49.768;8.636;2022-08-07T11:00:30;100842.88;;;28.55
64184;BMP280;50485;49.768;8.636;2022-08-07T11:02:59;100849.59;;;28.78
64184;BMP280;50485;49.768;8.636;2022-08-07T11:05:31;100844.69;;;28.65
64184;BMP280;50485;49.768;8.636;2022-08-07T11:08:15;100838.09;;;28.36
64184;BMP280;50485;49.768;8.636;2022-08-07T11:13:17;100832.13;;;28.64
64184;BMP280;50485;49.768;8.636;2022-08-07T11:15:44;100828.25;;;28.08
64184;BMP280;50485;49.768;8.636;2022-08-07T11:20:55;100819.72;;;28.26
64184;BMP280;50485;49.768;8.636;2022-08-07T11:23:25;100827.22;;;28.25
64184;BMP280;50485;49.768;8.636;2022-08-07T11:26:04;100829.13;;;28.01
64184;BMP280;50485;49.768;8.636;2022-08-07T11:28:38;100823.38;;;28.19
64184;BMP280;50485;49.768;8.636;2022-08-07T11:31:06;100814.72;;;27.90
64184;BMP280;50485;49.768;8.636;2022-08-07T11:33:45;100825.09;;;28.10
64184;BMP280;50485;49.768;8.636;2022-08-07T11:36:16;100804.94;;;27.86
64184;BMP280;50485;49.768;8.636;2022-08-07T11:38:46;100796.59;;;27.62
64184;BMP280;50485;49.768;8.636;2022-08-07T11:41:14;100802.44;;;27.68
64184;BMP280;50485;49.768;8.636;2022-08-07T11:51:51;100785.41;;;27.73
64184;BMP280;50485;49.768;8.636;2022-08-07T12:01:52;100787.84;;;27.41
64184;BMP280;50485;49.768;8.636;2022-08-07T12:04:39;100793.63;;;27.50
64184;BMP280;50485;49.768;8.636;2022-08-07T12:07:22;100778.72;;;27.47
64184;BMP280;50485;49.768;8.636;2022-08-07T12:10:22;100768.69;;;27.30
64184;BMP280;50485;49.768;8.636;2022-08-07T12:12:39;100775.81;;;27.24
64184;BMP280;50485;49.768;8.636;2022-08-07T12:15:26;100776.00;;;27.10
64184;BMP280;50485;49.768;8.636;2022-08-07T12:17:59;100767.66;;;27.17
64184;BMP280;50485;49.768;8.636;2022-08-07T12:20:33;100764.50;;;27.18
64184;BMP280;50485;49.768;8.636;2022-08-07T12:25:47;100766.53;;;27.11
64184;BMP280;50485;49.768;8.636;2022-08-07T12:28:19;100753.63;;;27.08
64184;BMP280;50485;49.768;8.636;2022-08-07T12:30:48;100750.06;;;27.07
64184;BMP280;50485;49.768;8.636;2022-08-07T12:33:16;100752.81;;;27.07
64184;BMP280;50485;49.768;8.636;2022-08-07T12:35:43;100753.84;;;27.20
64184;BMP280;50485;49.768;8.636;2022-08-07T12:38:09;100741.25;;;27.23
64184;BMP280;50485;49.768;8.636;2022-08-07T12:40:36;100742.91;;;27.13
64184;BMP280;50485;49.768;8.636;2022-08-07T12:43:04;100739.44;;;27.09
64184;BMP280;50485;49.768;8.636;2022-08-07T12:48:28;100744.00;;;26.85
64184;BMP280;50485;49.768;8.636;2022-08-07T12:51:02;100736.31;;;27.07
64184;BMP280;50485;49.768;8.636;2022-08-07T12:56:01;100736.47;;;26.93
64184;BMP280;50485;49.768;8.636;2022-08-07T12:58:27;100733.63;;;27.00
64184;BMP280;50485;49.768;8.636;2022-08-07T13:01:07;100735.88;;;27.12
64184;BMP280;50485;49.768;8.636;2022-08-07T13:09:16;100730.44;;;27.05
64184;BMP280;50485;49.768;8.636;2022-08-07T13:14:50;100727.38;;;26.99
64184;BMP280;50485;49.768;8.636;2022-08-07T13:17:25;100719.97;;;26.93
64184;BMP280;50485;49.768;8.636;2022-08-07T13:20:07;100732.78;;;27.06
64184;BMP280;50485;49.768;8.636;2022-08-07T13:22:38;100725.44;;;26.96
64184;BMP280;50485;49.768;8.636;2022-08-07T13:25:06;100720.31;;;26.98
64184;BMP280;50485;49.768;8.636;2022-08-07T13:27:35;100715.13;;;27.04
64184;BMP280;50485;49.768;8.636;2022-08-07T13:30:04;100714.78;;;27.02
64184;BMP280;50485;49.768;8.636;2022-08-07T13:32:44;100709.41;;;26.88
64184;BMP280;50485;49.768;8.636;2022-08-07T13:35:18;100714.16;;;26.84
64184;BMP280;50485;49.768;8.636;2022-08-07T13:40:29;100697.28;;;26.82
64184;BMP280;50485;49.768;8.636;2022-08-07T13:42:56;100700.69;;;26.96
64184;BMP280;50485;49.768;8.636;2022-08-07T13:45:22;100691.31;;;26.90
64184;BMP280;50485;49.768;8.636;2022-08-07T13:47:50;100696.75;;;26.97
64184;BMP280;50485;49.768;8.636;2022-08-07T13:50:16;100690.84;;;26.99
64184;BMP280;50485;49.768;8.636;2022-08-07T13:52:43;100699.13;;;26.95
64184;BMP280;50485;49.768;8.636;2022-08-07T13:55:10;100689.59;;;27.00
64184;BMP280;50485;49.768;8.636;2022-08-07T13:57:37;100692.75;;;27.02
64184;BMP280;50485;49.768;8.636;2022-08-07T14:00:03;100688.81;;;27.03
64184;BMP280;50485;49.768;8.636;2022-08-07T14:02:30;100685.00;;;26.93
64184;BMP280;50485;49.768;8.636;2022-08-07T14:04:59;100693.34;;;26.83
64184;BMP280;50485;49.768;8.636;2022-08-07T14:07:32;100681.09;;;26.91
64184;BMP280;50485;49.768;8.636;2022-08-07T14:09:58;100679.53;;;26.90
64184;BMP280;50485;49.768;8.636;2022-08-07T14:12:29;100675.94;;;26.96
64184;BMP280;50485;49.768;8.636;2022-08-07T14:15:00;100664.09;;;26.99
64184;BMP280;50485;49.768;8.636;2022-08-07T14:17:27;100672.47;;;26.89
64184;BMP280;50485;49.768;8.636;2022-08-07T14:19:58;100668.56;;;26.86
64184;BMP280;50485;49.768;8.636;2022-08-07T14:22:25;100660.72;;;26.85
64184;BMP280;50485;49.768;8.636;2022-08-07T14:24:53;100671.66;;;26.92
64184;BMP280;50485;49.768;8.636;2022-08-07T14:27:25;100671.94;;;27.01
64184;BMP280;50485;49.768;8.636;2022-08-07T14:29:53;100666.53;;;26.94
64184;BMP280;50485;49.768;8.636;2022-08-07T14:32:19;100660.34;;;26.83
64184;BMP280;50485;49.768;8.636;2022-08-07T14:34:45;100659.88;;;26.91
64184;BMP280;50485;49.768;8.636;2022-08-07T14:37:12;100660.63;;;26.95
64184;BMP280;50485;49.768;8.636;2022-08-07T14:39:39;100663.03;;;26.90
64184;BMP280;50485;49.768;8.636;2022-08-07T14:42:06;100664.59;;;26.91
64184;BMP280;50485;49.768;8.636;2022-08-07T14:44:33;100654.78;;;26.90
64184;BMP280;50485;49.768;8.636;2022-08-07T14:46:59;100645.75;;;26.89
64184;BMP280;50485;49.768;8.636;2022-08-07T14:49:28;100639.91;;;26.84
64184;BMP280;50485;49.768;8.636;2022-08-07T14:51:55;100650.50;;;26.85
64184;BMP280;50485;49.768;8.636;2022-08-07T14:54:21;100646.81;;;26.99
64184;BMP280;50485;49.768;8.636;2022-08-07T14:56:47;100645.56;;;27.03
64184;BMP280;50485;49.768;8.636;2022-08-07T14:59:14;100640.84;;;27.04
64184;BMP280;50485;49.768;8.636;2022-08-07T15:01:44;100646.81;;;26.99
64184;BMP280;50485;49.768;8.636;2022-08-07T15:04:09;100646.00;;;27.02
64184;BMP280;50485;49.768;8.636;2022-08-07T15:06:35;100637.00;;;26.98
64184;BMP280;50485;49.768;8.636;2022-08-07T15:09:06;100639.38;;;26.96
64184;BMP280;50485;49.768;8.636;2022-08-07T15:11:40;100632.75;;;26.93
64184;BMP280;50485;49.768;8.636;2022-08-07T15:14:07;100627.66;;;26.92
64184;BMP280;50485;49.768;8.636;2022-08-07T15:16:37;100627.28;;;26.90
64184;BMP280;50485;49.768;8.636;2022-08-07T15:19:08;100629.22;;;26.93
64184;BMP280;50485;49.768;8.636;2022-08-07T15:21:35;100618.25;;;26.89
64184;BMP280;50485;49.768;8.636;2022-08-07T15:24:03;100610.03;;;26.86
64184;BMP280;50485;49.768;8.636;2022-08-07T15:26:35;100622.63;;;26.83
64184;BMP280;50485;49.768;8.636;2022-08-07T15:29:02;100627.84;;;26.74
64184;BMP280;50485;49.768;8.636;2022-08-07T15:31:28;100621.13;;;26.79
64184;BMP280;50485;49.768;8.636;2022-08-07T15:33:57;100617.59;;;26.78
64184;BMP280;50485;49.768;8.636;2022-08-07T15:36:23;100617.56;;;26.82
64184;BMP280;50485;49.768;8.636;2022-08-07T15:38:50;100615.91;;;26.88
64184;BMP280;50485;49.768;8.636;2022-08-07T15:41:16;100610.41;;;26.88
64184;BMP280;50485;49.768;8.636;2022-08-07T15:43:42;100612.81;;;26.82
64184;BMP280;50485;49.768;8.636;2022-08-07T15:46:18;100610.59;;;26.74
64184;BMP280;50485;49.768;8.636;2022-08-07T15:48:44;100620.81;;;26.73
64184;BMP280;50485;49.768;8.636;2022-08-07T15:51:10;100605.09;;;26.74
64184;BMP280;50485;49.768;8.636;2022-08-07T15:53:38;100596.75;;;26.81
64184;BMP280;50485;49.768;8.636;2022-08-07T15:56:05;100603.06;;;26.78
64184;BMP280;50485;49.768;8.636;2022-08-07T16:01:11;100594.47;;;26.72
64184;BMP280;50485;49.768;8.636;2022-08-07T16:03:39;100596.03;;;26.77
64184;BMP280;50485;49.768;8.636;2022-08-07T16:06:07;100595.91;;;26.84
64184;BMP280;50485;49.768;8.636;2022-08-07T16:08:33;100600.41;;;26.70